Rm Cauca — HKRV8 — position and weather

sailwx.info

Track history (hours):
 
Tides and Currents Weather Stations Pressure Air Temp Water Temp Dewpoint Dewpoint Depression Visibility Wind Speed Wind Dir Waves Ship Positions

Rm Cauca

Last reported at 2018-Jun-20 03:57 UTC. Time now 2018-Jun-20 04:05 UTC.
Position N 10°58' W 074°46'.

Length 32 m.

Type: Tug. MMSI: 730151688.

Date/timePositionNaut miles runAvg speedWind from/ knotsBaromVisibWave heightAir tempDewpointWater temp
2018-Jun-20 03:57N 10°58' W 074°46'0 0.0
2018-Jun-20 03:30N 10°58' W 074°46'0 0.0
2018-Jun-20 02:56N 10°58' W 074°46'1 2.7
2018-Jun-20 02:29N 10°57' W 074°46'1 1.8
2018-Jun-20 01:54N 10°58' W 074°46'1 0.9
2018-Jun-20 01:03N 10°59' W 074°45'0 0.9
2018-Jun-20 00:59N 10°59' W 074°45'1 1.1
2018-Jun-20 00:28N 10°58' W 074°46'0 0.0
2018-Jun-20 00:00N 10°58' W 074°46'0 0.0
2018-Jun-19 23:29N 10°58' W 074°46'0 0.0
2018-Jun-19 20:51N 10°58' W 074°46'0 0.0
2018-Jun-19 20:23N 10°58' W 074°46'0 0.0
2018-Jun-19 19:58N 10°58' W 074°46'0 0.0
2018-Jun-19 19:30N 10°58' W 074°46'0 0.0
2018-Jun-19 19:00N 10°58' W 074°46'0 0.0
2018-Jun-19 18:21N 10°58' W 074°46'0 0.0
2018-Jun-19 17:57N 10°58' W 074°46'0 0.0
2018-Jun-19 17:30N 10°58' W 074°46'0 0.0
2018-Jun-19 17:00N 10°58' W 074°46'0 0.0
2018-Jun-19 16:02N 10°58' W 074°46'0 0.0
2018-Jun-19 15:49N 10°58' W 074°46'0 0.0
2018-Jun-19 15:30N 10°58' W 074°46'0 0.0
2018-Jun-19 14:59N 10°58' W 074°46'0 0.0
2018-Jun-19 14:29N 10°58' W 074°46'0 0.0
2018-Jun-19 12:56N 10°58' W 074°46'0 0.0
2018-Jun-19 05:27N 10°59' W 074°45'0 0.2
2018-Jun-19 04:33N 10°58' W 074°46'0 0.0
2018-Jun-19 04:30N 10°58' W 074°46'0 0.0
2018-Jun-19 03:04N 10°58' W 074°46'0 0.6
2018-Jun-19 02:22N 10°59' W 074°45'0 1.0
2018-Jun-19 01:56N 10°58' W 074°46'0 0.0
2018-Jun-19 00:45N 10°58' W 074°46'0 0.0
2018-Jun-19 00:19N 10°58' W 074°46'0 0.0
2018-Jun-18 23:51N 10°58' W 074°46'0 0.0
2018-Jun-18 23:29N 10°58' W 074°46'5 2.2
2018-Jun-18 21:04N 11°02' W 074°49'0 0.0
2018-Jun-18 20:54N 11°02' W 074°49'0 0.1
2018-Jun-18 20:22N 11°02' W 074°49'0 0.3
2018-Jun-18 19:48N 11°02' W 074°49'513.6
2018-Jun-18 19:28N 10°59' W 074°46'1 1.0
2018-Jun-18 18:54N 10°58' W 074°46'0 0.1
2018-Jun-18 12:04N 10°58' W 074°46'0 0.0
2018-Jun-18 11:59N 10°58' W 074°46'0 0.0
2018-Jun-18 11:25N 10°58' W 074°46'0 0.0
2018-Jun-18 11:00N 10°58' W 074°46'1 0.6
2018-Jun-18 09:24N 10°59' W 074°45'1 0.9
2018-Jun-18 08:42N 10°58' W 074°46'0 0.0
2018-Jun-18 08:21N 10°58' W 074°46'0 0.0
2018-Jun-18 07:58N 10°58' W 074°46'0 0.0
2018-Jun-18 07:30N 10°58' W 074°46'0 0.0
2018-Jun-18 06:59N 10°58' W 074°46'0 0.0
2018-Jun-18 06:30N 10°58' W 074°46'0 0.0
2018-Jun-18 05:59N 10°58' W 074°46'0 0.0
2018-Jun-18 05:31N 10°58' W 074°46'0 0.0
2018-Jun-18 03:12N 10°58' W 074°46'0 0.0
2018-Jun-18 02:58N 10°58' W 074°46'0 0.0
2018-Jun-18 02:30N 10°58' W 074°46'1 0.5
2018-Jun-18 00:05N 10°59' W 074°46'0 0.2
2018-Jun-17 23:42N 10°59' W 074°46'1 0.1
2018-Jun-17 13:38N 11°00' W 074°46'1 5.7
2018-Jun-17 13:23N 10°59' W 074°45'0 0.7
2018-Jun-17 12:58N 10°59' W 074°45'1 2.0
2018-Jun-17 12:25N 10°58' W 074°46'1 0.3
2018-Jun-17 09:06N 10°59' W 074°45'0 0.2
2018-Jun-17 08:48N 10°59' W 074°45'1 1.4
2018-Jun-17 08:19N 10°58' W 074°45'0 0.4
2018-Jun-17 07:58N 10°58' W 074°46'0 0.6
2018-Jun-17 07:30N 10°58' W 074°45'1 0.1
2018-Jun-17 02:26N 10°59' W 074°45'0 0.1
2018-Jun-17 01:59N 10°59' W 074°45'1 1.8
2018-Jun-17 01:29N 10°58' W 074°46'0 0.0
2018-Jun-17 01:00N 10°58' W 074°46'0 0.0
2018-Jun-17 00:30N 10°58' W 074°46'0 0.0
2018-Jun-17 00:00N 10°58' W 074°46'0 0.0
2018-Jun-16 12:50N 10°58' W 074°46'0 0.0
2018-Jun-16 12:23N 10°58' W 074°46'0 0.0
2018-Jun-16 11:59N 10°58' W 074°46'0 0.0
2018-Jun-16 11:29N 10°58' W 074°46'0 0.0
2018-Jun-16 10:37N 10°58' W 074°46'0 0.0
2018-Jun-16 10:29N 10°58' W 074°46'0 0.0
2018-Jun-16 10:00N 10°58' W 074°46'0 0.0
2018-Jun-16 09:28N 10°58' W 074°46'0 0.0
2018-Jun-16 08:57N 10°58' W 074°46'0 0.0
2018-Jun-16 08:30N 10°58' W 074°46'0 0.0
2018-Jun-16 08:01N 10°58' W 074°46'0 0.0
2018-Jun-16 07:29N 10°58' W 074°46'0 0.0
2018-Jun-16 06:52N 10°58' W 074°46'0 0.0
2018-Jun-16 06:29N 10°58' W 074°46'0 0.0
2018-Jun-16 05:38N 10°58' W 074°46'0 0.0
2018-Jun-16 05:26N 10°58' W 074°46'0 0.0
2018-Jun-16 05:00N 10°58' W 074°46'0 0.0
2018-Jun-16 04:26N 10°58' W 074°46'0 0.0
2018-Jun-16 03:12N 10°58' W 074°46'0 0.0
2018-Jun-16 02:58N 10°58' W 074°46'0 0.0
2018-Jun-16 02:30N 10°58' W 074°46'0 0.0
2018-Jun-16 01:48N 10°58' W 074°46'0 0.0
2018-Jun-16 01:30N 10°58' W 074°46'0 0.0
2018-Jun-16 01:00N 10°58' W 074°46'0 0.0
2018-Jun-16 00:29N 10°58' W 074°46'0 0.0
2018-Jun-16 00:00N 10°58' W 074°46'0 0.0
2018-Jun-15 23:30N 10°58' W 074°46'0 0.0
2018-Jun-15 03:02N 10°58' W 074°46'0 0.0
2018-Jun-15 02:47N 10°58' W 074°46'0 0.0
2018-Jun-15 02:29N 10°58' W 074°46'0 0.0
2018-Jun-15 00:32N 10°58' W 074°46'0 0.0
2018-Jun-15 00:29N 10°58' W 074°46'0 0.0
2018-Jun-15 00:00N 10°58' W 074°46'0 0.0
2018-Jun-14 23:24N 10°58' W 074°46'0 0.0
2018-Jun-14 21:11N 10°58' W 074°46'0 0.0
2018-Jun-14 21:00N 10°58' W 074°46'1 0.1
2018-Jun-14 14:03N 10°59' W 074°46'1 3.1
2018-Jun-14 13:44N 10°58' W 074°46'0 0.0
2018-Jun-14 13:28N 10°58' W 074°46'0 0.0
2018-Jun-14 12:38N 10°58' W 074°46'0 0.0
2018-Jun-14 12:29N 10°58' W 074°46'0 0.0
2018-Jun-14 12:00N 10°58' W 074°46'0 0.0
2018-Jun-14 11:30N 10°58' W 074°46'0 0.0
2018-Jun-14 11:00N 10°58' W 074°46'0 0.0
2018-Jun-14 10:27N 10°58' W 074°46'0 0.0
2018-Jun-14 09:41N 10°58' W 074°46'0 0.0
2018-Jun-14 09:30N 10°58' W 074°46'0 0.0
2018-Jun-14 09:00N 10°58' W 074°46'0 0.0
2018-Jun-14 08:30N 10°58' W 074°46'0 0.0
2018-Jun-14 07:58N 10°58' W 074°46'0 0.0
2018-Jun-14 07:29N 10°58' W 074°46'0 0.0
2018-Jun-14 07:00N 10°58' W 074°46'0 0.0
2018-Jun-14 06:28N 10°58' W 074°46'0 0.0
2018-Jun-14 06:00N 10°58' W 074°46'0 0.0
2018-Jun-14 05:28N 10°58' W 074°46'0 0.0
2018-Jun-14 04:56N 10°58' W 074°46'0 0.0
2018-Jun-14 04:27N 10°58' W 074°46'0 0.0
2018-Jun-14 03:58N 10°58' W 074°46'0 0.0
2018-Jun-14 03:30N 10°58' W 074°46'0 0.0
2018-Jun-14 03:00N 10°58' W 074°46'0 0.0
2018-Jun-14 02:29N 10°58' W 074°46'0 0.0
2018-Jun-14 01:59N 10°58' W 074°46'0 0.0
2018-Jun-14 01:30N 10°58' W 074°46'0 0.0
2018-Jun-14 00:56N 10°58' W 074°46'0 0.0
2018-Jun-14 00:30N 10°58' W 074°46'0 0.0
2018-Jun-13 22:16N 10°58' W 074°46'0 0.0
2018-Jun-13 19:43N 10°58' W 074°46'0 0.0
2018-Jun-13 19:22N 10°58' W 074°46'0 0.0
2018-Jun-13 18:58N 10°58' W 074°46'0 0.0
2018-Jun-13 17:34N 10°58' W 074°46'0 0.0
2018-Jun-13 17:17N 10°58' W 074°46'0 0.0
2018-Jun-13 16:53N 10°58' W 074°46'0 0.0
2018-Jun-13 16:29N 10°58' W 074°46'0 0.0
2018-Jun-13 15:09N 10°58' W 074°46'0 0.1
2018-Jun-13 14:55N 10°58' W 074°46'0 0.0
2018-Jun-13 12:16N 10°58' W 074°45'0 0.0
2018-Jun-13 07:29N 10°58' W 074°46'0 0.0
2018-Jun-13 06:43N 10°58' W 074°46'0 0.0
2018-Jun-13 06:27N 10°58' W 074°46'0 0.0
2018-Jun-13 05:52N 10°58' W 074°46'0 0.0
2018-Jun-13 02:54N 10°58' W 074°46'0 0.0
2018-Jun-13 02:28N 10°58' W 074°46'0 0.0
2018-Jun-13 01:55N 10°58' W 074°46'1 1.2
2018-Jun-13 01:29N 10°58' W 074°45'0 0.5
2018-Jun-13 00:59N 10°58' W 074°45'0 0.0
2018-Jun-12 12:48N 10°58' W 074°46'0 0.0
2018-Jun-12 12:30N 10°58' W 074°46'0 0.0
2018-Jun-12 11:56N 10°58' W 074°46'0 0.0
2018-Jun-12 11:30N 10°58' W 074°46'0 0.0
2018-Jun-12 11:00N 10°58' W 074°46'0 0.0
2018-Jun-12 10:29N 10°58' W 074°46'0 0.0
2018-Jun-12 09:59N 10°58' W 074°46'0 0.0
2018-Jun-12 09:30N 10°58' W 074°46'0 0.0
2018-Jun-12 09:00N 10°58' W 074°46'0 0.0
2018-Jun-12 08:29N 10°58' W 074°46'0 0.0
2018-Jun-12 08:00N 10°58' W 074°46'0 0.0
2018-Jun-12 07:30N 10°58' W 074°46'0 0.0
2018-Jun-12 07:00N 10°58' W 074°46'0 0.0
2018-Jun-12 06:30N 10°58' W 074°46'0 0.0
2018-Jun-12 06:00N 10°58' W 074°46'0 0.0
2018-Jun-12 05:30N 10°58' W 074°46'0 0.0
2018-Jun-12 05:00N 10°58' W 074°46'0 0.0
2018-Jun-12 04:24N 10°58' W 074°46'0 0.0
2018-Jun-12 04:00N 10°58' W 074°46'0 0.0
2018-Jun-12 03:28N 10°58' W 074°46'0 0.0
2018-Jun-12 02:59N 10°58' W 074°46'0 0.0
2018-Jun-12 02:22N 10°58' W 074°46'0 0.0
2018-Jun-12 01:56N 10°58' W 074°46'0 0.0
2018-Jun-11 23:47N 10°58' W 074°46'0 0.0
2018-Jun-11 23:30N 10°58' W 074°46'0 0.0
2018-Jun-11 17:22N 10°58' W 074°46'0 0.0
2018-Jun-11 16:38N 10°58' W 074°46'0 0.0
2018-Jun-11 16:30N 10°58' W 074°46'0 0.0
2018-Jun-11 15:57N 10°58' W 074°46'0 0.0
2018-Jun-11 15:29N 10°58' W 074°46'0 0.0
2018-Jun-11 15:00N 10°58' W 074°46'0 0.0
2018-Jun-11 14:30N 10°58' W 074°46'1 0.4
2018-Jun-11 11:33N 10°59' W 074°46'1 1.2
2018-Jun-11 10:36N 10°58' W 074°46'0 0.0
2018-Jun-11 10:24N 10°58' W 074°46'0 0.0
2018-Jun-11 07:01N 10°58' W 074°46'0 0.0
2018-Jun-11 06:56N 10°58' W 074°46'0 0.0
2018-Jun-11 06:18N 10°58' W 074°46'0 0.0
2018-Jun-11 05:59N 10°58' W 074°46'0 0.0
2018-Jun-11 04:35N 10°58' W 074°46'0 0.0
2018-Jun-11 04:27N 10°58' W 074°46'1 0.6
2018-Jun-11 02:48N 10°59' W 074°46'0 0.0
2018-Jun-11 01:44N 10°59' W 074°46'1 1.1
2018-Jun-11 00:50N 10°58' W 074°46'0 0.1
2018-Jun-11 00:21N 10°58' W 074°45'0 1.3
2018-Jun-10 23:59N 10°59' W 074°45'0 0.1
2018-Jun-10 19:01N 10°58' W 074°46'0 0.1
2018-Jun-10 18:19N 10°58' W 074°46'0 0.0
2018-Jun-10 14:12N 10°58' W 074°46'0 0.0
2018-Jun-10 08:07N 10°58' W 074°45'0 0.8
2018-Jun-10 07:53N 10°58' W 074°45'0 0.2
2018-Jun-10 06:37N 10°58' W 074°45'1 6.1
2018-Jun-10 06:30N 10°57' W 074°45'  
Track history (hours):
 
Tides and Currents Weather Stations Pressure Air Temp Water Temp Dewpoint Dewpoint Depression Visibility Wind Speed Wind Dir Waves Ship Positions

Rm Cauca

Last reported at 2018-Jun-20 03:57 UTC. Time now 2018-Jun-20 04:05 UTC.
Position N 10°58' W 074°46'.

Length 32 m.

Type: Tug. MMSI: 730151688.

Date/timePositionNaut miles runAvg speedWind from/ knotsBaromVisibWave heightAir tempDewpointWater temp
2018-Jun-20 03:57N 10°58' W 074°46'0 0.0
2018-Jun-20 03:30N 10°58' W 074°46'0 0.0
2018-Jun-20 02:56N 10°58' W 074°46'1 2.7
2018-Jun-20 02:29N 10°57' W 074°46'1 1.8
2018-Jun-20 01:54N 10°58' W 074°46'1 0.9
2018-Jun-20 01:03N 10°59' W 074°45'0 0.9
2018-Jun-20 00:59N 10°59' W 074°45'1 1.1
2018-Jun-20 00:28N 10°58' W 074°46'0 0.0
2018-Jun-20 00:00N 10°58' W 074°46'0 0.0
2018-Jun-19 23:29N 10°58' W 074°46'0 0.0
2018-Jun-19 20:51N 10°58' W 074°46'0 0.0
2018-Jun-19 20:23N 10°58' W 074°46'0 0.0
2018-Jun-19 19:58N 10°58' W 074°46'0 0.0
2018-Jun-19 19:30N 10°58' W 074°46'0 0.0
2018-Jun-19 19:00N 10°58' W 074°46'0 0.0
2018-Jun-19 18:21N 10°58' W 074°46'0 0.0
2018-Jun-19 17:57N 10°58' W 074°46'0 0.0
2018-Jun-19 17:30N 10°58' W 074°46'0 0.0
2018-Jun-19 17:00N 10°58' W 074°46'0 0.0
2018-Jun-19 16:02N 10°58' W 074°46'0 0.0
2018-Jun-19 15:49N 10°58' W 074°46'0 0.0
2018-Jun-19 15:30N 10°58' W 074°46'0 0.0
2018-Jun-19 14:59N 10°58' W 074°46'0 0.0
2018-Jun-19 14:29N 10°58' W 074°46'0 0.0
2018-Jun-19 12:56N 10°58' W 074°46'0 0.0
2018-Jun-19 05:27N 10°59' W 074°45'0 0.2
2018-Jun-19 04:33N 10°58' W 074°46'0 0.0
2018-Jun-19 04:30N 10°58' W 074°46'0 0.0
2018-Jun-19 03:04N 10°58' W 074°46'0 0.6
2018-Jun-19 02:22N 10°59' W 074°45'0 1.0
2018-Jun-19 01:56N 10°58' W 074°46'0 0.0
2018-Jun-19 00:45N 10°58' W 074°46'0 0.0
2018-Jun-19 00:19N 10°58' W 074°46'0 0.0
2018-Jun-18 23:51N 10°58' W 074°46'0 0.0
2018-Jun-18 23:29N 10°58' W 074°46'5 2.2
2018-Jun-18 21:04N 11°02' W 074°49'0 0.0
2018-Jun-18 20:54N 11°02' W 074°49'0 0.1
2018-Jun-18 20:22N 11°02' W 074°49'0 0.3
2018-Jun-18 19:48N 11°02' W 074°49'513.6
2018-Jun-18 19:28N 10°59' W 074°46'1 1.0
2018-Jun-18 18:54N 10°58' W 074°46'0 0.1
2018-Jun-18 12:04N 10°58' W 074°46'0 0.0
2018-Jun-18 11:59N 10°58' W 074°46'0 0.0
2018-Jun-18 11:25N 10°58' W 074°46'0 0.0
2018-Jun-18 11:00N 10°58' W 074°46'1 0.6
2018-Jun-18 09:24N 10°59' W 074°45'1 0.9
2018-Jun-18 08:42N 10°58' W 074°46'0 0.0
2018-Jun-18 08:21N 10°58' W 074°46'0 0.0
2018-Jun-18 07:58N 10°58' W 074°46'0 0.0
2018-Jun-18 07:30N 10°58' W 074°46'0 0.0
2018-Jun-18 06:59N 10°58' W 074°46'0 0.0
2018-Jun-18 06:30N 10°58' W 074°46'0 0.0
2018-Jun-18 05:59N 10°58' W 074°46'0 0.0
2018-Jun-18 05:31N 10°58' W 074°46'0 0.0
2018-Jun-18 03:12N 10°58' W 074°46'0 0.0
2018-Jun-18 02:58N 10°58' W 074°46'0 0.0
2018-Jun-18 02:30N 10°58' W 074°46'1 0.5
2018-Jun-18 00:05N 10°59' W 074°46'0 0.2
2018-Jun-17 23:42N 10°59' W 074°46'1 0.1
2018-Jun-17 13:38N 11°00' W 074°46'1 5.7
2018-Jun-17 13:23N 10°59' W 074°45'0 0.7
2018-Jun-17 12:58N 10°59' W 074°45'1 2.0
2018-Jun-17 12:25N 10°58' W 074°46'1 0.3
2018-Jun-17 09:06N 10°59' W 074°45'0 0.2
2018-Jun-17 08:48N 10°59' W 074°45'1 1.4
2018-Jun-17 08:19N 10°58' W 074°45'0 0.4
2018-Jun-17 07:58N 10°58' W 074°46'0 0.6
2018-Jun-17 07:30N 10°58' W 074°45'1 0.1
2018-Jun-17 02:26N 10°59' W 074°45'0 0.1
2018-Jun-17 01:59N 10°59' W 074°45'1 1.8
2018-Jun-17 01:29N 10°58' W 074°46'0 0.0
2018-Jun-17 01:00N 10°58' W 074°46'0 0.0
2018-Jun-17 00:30N 10°58' W 074°46'0 0.0
2018-Jun-17 00:00N 10°58' W 074°46'0 0.0
2018-Jun-16 12:50N 10°58' W 074°46'0 0.0
2018-Jun-16 12:23N 10°58' W 074°46'0 0.0
2018-Jun-16 11:59N 10°58' W 074°46'0 0.0
2018-Jun-16 11:29N 10°58' W 074°46'0 0.0
2018-Jun-16 10:37N 10°58' W 074°46'0 0.0
2018-Jun-16 10:29N 10°58' W 074°46'0 0.0
2018-Jun-16 10:00N 10°58' W 074°46'0 0.0
2018-Jun-16 09:28N 10°58' W 074°46'0 0.0
2018-Jun-16 08:57N 10°58' W 074°46'0 0.0
2018-Jun-16 08:30N 10°58' W 074°46'0 0.0
2018-Jun-16 08:01N 10°58' W 074°46'0 0.0
2018-Jun-16 07:29N 10°58' W 074°46'0 0.0
2018-Jun-16 06:52N 10°58' W 074°46'0 0.0
2018-Jun-16 06:29N 10°58' W 074°46'0 0.0
2018-Jun-16 05:38N 10°58' W 074°46'0 0.0
2018-Jun-16 05:26N 10°58' W 074°46'0 0.0
2018-Jun-16 05:00N 10°58' W 074°46'0 0.0
2018-Jun-16 04:26N 10°58' W 074°46'0 0.0
2018-Jun-16 03:12N 10°58' W 074°46'0 0.0
2018-Jun-16 02:58N 10°58' W 074°46'0 0.0
2018-Jun-16 02:30N 10°58' W 074°46'0 0.0
2018-Jun-16 01:48N 10°58' W 074°46'0 0.0
2018-Jun-16 01:30N 10°58' W 074°46'0 0.0
2018-Jun-16 01:00N 10°58' W 074°46'0 0.0
2018-Jun-16 00:29N 10°58' W 074°46'0 0.0
2018-Jun-16 00:00N 10°58' W 074°46'0 0.0
2018-Jun-15 23:30N 10°58' W 074°46'0 0.0
2018-Jun-15 03:02N 10°58' W 074°46'0 0.0
2018-Jun-15 02:47N 10°58' W 074°46'0 0.0
2018-Jun-15 02:29N 10°58' W 074°46'0 0.0
2018-Jun-15 00:32N 10°58' W 074°46'0 0.0
2018-Jun-15 00:29N 10°58' W 074°46'0 0.0
2018-Jun-15 00:00N 10°58' W 074°46'0 0.0
2018-Jun-14 23:24N 10°58' W 074°46'0 0.0
2018-Jun-14 21:11N 10°58' W 074°46'0 0.0
2018-Jun-14 21:00N 10°58' W 074°46'1 0.1
2018-Jun-14 14:03N 10°59' W 074°46'1 3.1
2018-Jun-14 13:44N 10°58' W 074°46'0 0.0
2018-Jun-14 13:28N 10°58' W 074°46'0 0.0
2018-Jun-14 12:38N 10°58' W 074°46'0 0.0
2018-Jun-14 12:29N 10°58' W 074°46'0 0.0
2018-Jun-14 12:00N 10°58' W 074°46'0 0.0
2018-Jun-14 11:30N 10°58' W 074°46'0 0.0
2018-Jun-14 11:00N 10°58' W 074°46'0 0.0
2018-Jun-14 10:27N 10°58' W 074°46'0 0.0
2018-Jun-14 09:41N 10°58' W 074°46'0 0.0
2018-Jun-14 09:30N 10°58' W 074°46'0 0.0
2018-Jun-14 09:00N 10°58' W 074°46'0 0.0
2018-Jun-14 08:30N 10°58' W 074°46'0 0.0
2018-Jun-14 07:58N 10°58' W 074°46'0 0.0
2018-Jun-14 07:29N 10°58' W 074°46'0 0.0
2018-Jun-14 07:00N 10°58' W 074°46'0 0.0
2018-Jun-14 06:28N 10°58' W 074°46'0 0.0
2018-Jun-14 06:00N 10°58' W 074°46'0 0.0
2018-Jun-14 05:28N 10°58' W 074°46'0 0.0
2018-Jun-14 04:56N 10°58' W 074°46'0 0.0
2018-Jun-14 04:27N 10°58' W 074°46'0 0.0
2018-Jun-14 03:58N 10°58' W 074°46'0 0.0
2018-Jun-14 03:30N 10°58' W 074°46'0 0.0
2018-Jun-14 03:00N 10°58' W 074°46'0 0.0
2018-Jun-14 02:29N 10°58' W 074°46'0 0.0
2018-Jun-14 01:59N 10°58' W 074°46'0 0.0
2018-Jun-14 01:30N 10°58' W 074°46'0 0.0
2018-Jun-14 00:56N 10°58' W 074°46'0 0.0
2018-Jun-14 00:30N 10°58' W 074°46'0 0.0
2018-Jun-13 22:16N 10°58' W 074°46'0 0.0
2018-Jun-13 19:43N 10°58' W 074°46'0 0.0
2018-Jun-13 19:22N 10°58' W 074°46'0 0.0
2018-Jun-13 18:58N 10°58' W 074°46'0 0.0
2018-Jun-13 17:34N 10°58' W 074°46'0 0.0
2018-Jun-13 17:17N 10°58' W 074°46'0 0.0
2018-Jun-13 16:53N 10°58' W 074°46'0 0.0
2018-Jun-13 16:29N 10°58' W 074°46'0 0.0
2018-Jun-13 15:09N 10°58' W 074°46'0 0.1
2018-Jun-13 14:55N 10°58' W 074°46'0 0.0
2018-Jun-13 12:16N 10°58' W 074°45'0 0.0
2018-Jun-13 07:29N 10°58' W 074°46'0 0.0
2018-Jun-13 06:43N 10°58' W 074°46'0 0.0
2018-Jun-13 06:27N 10°58' W 074°46'0 0.0
2018-Jun-13 05:52N 10°58' W 074°46'0 0.0
2018-Jun-13 02:54N 10°58' W 074°46'0 0.0
2018-Jun-13 02:28N 10°58' W 074°46'0 0.0
2018-Jun-13 01:55N 10°58' W 074°46'1 1.2
2018-Jun-13 01:29N 10°58' W 074°45'0 0.5
2018-Jun-13 00:59N 10°58' W 074°45'0 0.0
2018-Jun-12 12:48N 10°58' W 074°46'0 0.0
2018-Jun-12 12:30N 10°58' W 074°46'0 0.0
2018-Jun-12 11:56N 10°58' W 074°46'0 0.0
2018-Jun-12 11:30N 10°58' W 074°46'0 0.0
2018-Jun-12 11:00N 10°58' W 074°46'0 0.0
2018-Jun-12 10:29N 10°58' W 074°46'0 0.0
2018-Jun-12 09:59N 10°58' W 074°46'0 0.0
2018-Jun-12 09:30N 10°58' W 074°46'0 0.0
2018-Jun-12 09:00N 10°58' W 074°46'0 0.0
2018-Jun-12 08:29N 10°58' W 074°46'0 0.0
2018-Jun-12 08:00N 10°58' W 074°46'0 0.0
2018-Jun-12 07:30N 10°58' W 074°46'0 0.0
2018-Jun-12 07:00N 10°58' W 074°46'0 0.0
2018-Jun-12 06:30N 10°58' W 074°46'0 0.0
2018-Jun-12 06:00N 10°58' W 074°46'0 0.0
2018-Jun-12 05:30N 10°58' W 074°46'0 0.0
2018-Jun-12 05:00N 10°58' W 074°46'0 0.0
2018-Jun-12 04:24N 10°58' W 074°46'0 0.0
2018-Jun-12 04:00N 10°58' W 074°46'0 0.0
2018-Jun-12 03:28N 10°58' W 074°46'0 0.0
2018-Jun-12 02:59N 10°58' W 074°46'0 0.0
2018-Jun-12 02:22N 10°58' W 074°46'0 0.0
2018-Jun-12 01:56N 10°58' W 074°46'0 0.0
2018-Jun-11 23:47N 10°58' W 074°46'0 0.0
2018-Jun-11 23:30N 10°58' W 074°46'0 0.0
2018-Jun-11 17:22N 10°58' W 074°46'0 0.0
2018-Jun-11 16:38N 10°58' W 074°46'0 0.0
2018-Jun-11 16:30N 10°58' W 074°46'0 0.0
2018-Jun-11 15:57N 10°58' W 074°46'0 0.0
2018-Jun-11 15:29N 10°58' W 074°46'0 0.0
2018-Jun-11 15:00N 10°58' W 074°46'0 0.0
2018-Jun-11 14:30N 10°58' W 074°46'1 0.4
2018-Jun-11 11:33N 10°59' W 074°46'1 1.2
2018-Jun-11 10:36N 10°58' W 074°46'0 0.0
2018-Jun-11 10:24N 10°58' W 074°46'0 0.0
2018-Jun-11 07:01N 10°58' W 074°46'0 0.0
2018-Jun-11 06:56N 10°58' W 074°46'0 0.0
2018-Jun-11 06:18N 10°58' W 074°46'0 0.0
2018-Jun-11 05:59N 10°58' W 074°46'0 0.0
2018-Jun-11 04:35N 10°58' W 074°46'0 0.0
2018-Jun-11 04:27N 10°58' W 074°46'1 0.6
2018-Jun-11 02:48N 10°59' W 074°46'0 0.0
2018-Jun-11 01:44N 10°59' W 074°46'1 1.1
2018-Jun-11 00:50N 10°58' W 074°46'0 0.1
2018-Jun-11 00:21N 10°58' W 074°45'0 1.3
2018-Jun-10 23:59N 10°59' W 074°45'0 0.1
2018-Jun-10 19:01N 10°58' W 074°46'0 0.1
2018-Jun-10 18:19N 10°58' W 074°46'0 0.0
2018-Jun-10 14:12N 10°58' W 074°46'0 0.0
2018-Jun-10 08:07N 10°58' W 074°45'0 0.8
2018-Jun-10 07:53N 10°58' W 074°45'0 0.2
2018-Jun-10 06:37N 10°58' W 074°45'1 6.1
2018-Jun-10 06:30N 10°57' W 074°45'  

Dump ship's entire track history